Time;durP1;ratioP1;P1;durP2;ratioP2;P2;SDS_P1;SDS_P2;PMS_P1;PMS_P2;Temp;Humidity;BMP_temperature;BMP_pressure;BME280_temperature;BME280_humidity;BME280_pressure;Samples;Min_cycle;Max_cycle;Signal;HPM_P1;HPM_P2
2023/11/23 00:02:01;;;;;;;0.20;0.20;;;;;;;13.16;76.87;102176.63;7346855;19;20713;-62
2023/11/23 00:04:27;;;;;;;0.10;0.10;;;;;;;13.13;76.78;102176.66;7360039;19;20007;-62
2023/11/23 00:06:52;;;;;;;0.10;0.10;;;;;;;13.01;76.62;102174.13;7368202;19;20002;-63
2023/11/23 00:09:19;;;;;;;0.10;0.10;;;;;;;13.07;76.62;102194.19;7360236;19;20014;-62
2023/11/23 00:11:44;;;;;;;0.10;0.10;;;;;;;13.03;76.66;102184.59;7360940;19;20497;-62
2023/11/23 00:14:10;;;;;;;0.10;0.10;;;;;;;13.00;76.51;102182.91;7368003;19;20014;-61
2023/11/23 00:16:36;;;;;;;0.10;0.10;;;;;;;12.85;76.50;102160.31;7364638;19;20018;-62
2023/11/23 00:19:01;;;;;;;0.10;0.10;;;;;;;12.95;76.65;102180.31;7358398;19;20081;-62
2023/11/23 00:21:27;;;;;;;0.10;0.10;;;;;;;12.93;76.60;102175.97;7363385;19;20007;-61
2023/11/23 00:23:53;;;;;;;0.10;0.10;;;;;;;12.91;76.99;102160.25;7359979;19;20014;-62
2023/11/23 00:26:18;;;;;;;0.10;0.10;;;;;;;12.88;77.01;102162.03;7364644;19;20597;-62
2023/11/23 00:28:44;;;;;;;0.10;0.10;;;;;;;12.75;76.79;102145.53;7355849;19;20010;-60
2023/11/23 00:31:09;;;;;;;0.10;0.10;;;;;;;12.85;76.86;102156.81;7360353;19;20381;-62
2023/11/23 00:33:35;;;;;;;0.15;0.15;;;;;;;12.84;76.75;102166.44;7361328;19;20021;-62
2023/11/23 00:36:04;;;;;;;0.10;0.10;;;;;;;12.84;77.26;102170.81;7363097;19;20480;-62
2023/11/23 00:38:30;;;;;;;0.13;0.13;;;;;;;12.74;76.86;102149.03;7355483;19;20014;-62
2023/11/23 00:40:55;;;;;;;0.10;0.10;;;;;;;12.82;77.21;102172.56;7362013;19;20022;-62
2023/11/23 00:43:20;;;;;;;0.10;0.10;;;;;;;12.82;76.92;102151.59;7355422;19;20018;-62
2023/11/23 00:45:46;;;;;;;0.10;0.10;;;;;;;12.81;76.77;102153.34;7363884;19;20031;-62
2023/11/23 00:48:11;;;;;;;0.10;0.10;;;;;;;12.82;76.83;102146.34;7369052;19;20013;-62
2023/11/23 00:50:36;;;;;;;0.10;0.10;;;;;;;12.81;76.80;102152.47;7364827;19;20006;-62
2023/11/23 00:53:02;;;;;;;0.10;0.10;;;;;;;12.79;77.02;102152.50;7363837;19;20387;-62
2023/11/23 00:55:30;;;;;;;0.17;0.17;;;;;;;12.70;76.75;102137.72;7359289;19;20010;-62
2023/11/23 00:57:55;;;;;;;;;;;;;;;12.82;77.10;102141.97;7371126;19;20110;-61
2023/11/23 01:00:20;;;;;;;;;;;;;;;12.83;76.85;102129.75;7371609;19;19982;-63
2023/11/23 01:02:46;;;;;;;;;;;;;;;12.85;76.50;102143.69;7369044;19;19919;-62
2023/11/23 01:05:12;;;;;;;;;;;;;;;12.85;76.70;102133.22;7362857;19;20661;-62
2023/11/23 01:07:38;;;;;;;;;;;;;;;12.86;76.34;102129.72;7371052;19;19922;-62
2023/11/23 01:10:04;;;;;;;;;;;;;;;12.87;76.16;102147.16;7366744;19;20336;-61
2023/11/23 01:12:29;;;;;;;;;;;;;;;12.87;76.29;102134.06;7372036;19;19922;-62
2023/11/23 01:14:54;;;;;;;;;;;;;;;12.89;76.49;102132.31;7362871;19;19938;-62
2023/11/23 01:17:20;;;;;;;;;;;;;;;12.83;76.36;102133.25;7370630;19;19931;-62
2023/11/23 01:19:45;;;;;;;;;;;;;;;12.90;76.49;102136.66;7370648;19;19923;-62
2023/11/23 01:22:10;;;;;;;;;;;;;;;12.89;76.30;102138.41;7374952;19;19926;-62
2023/11/23 01:24:35;;;;;;;;;;;;;;;12.91;76.05;102146.25;7372312;19;19918;-62
2023/11/23 01:27:00;;;;;;;;;;;;;;;12.90;76.38;102141.91;7365912;19;19929;-62
2023/11/23 01:29:26;;;;;;;;;;;;;;;12.86;76.52;102140.19;7367740;19;19934;-62
2023/11/23 01:31:52;;;;;;;;;;;;;;;12.91;76.55;102115.66;7367397;19;19952;-62
2023/11/23 01:34:17;;;;;;;;;;;;;;;12.92;76.54;102132.25;7361695;19;19935;-61
2023/11/23 01:36:42;;;;;;;;;;;;;;;12.92;76.50;102125.25;7368077;19;19915;-62
2023/11/23 01:39:07;;;;;;;;;;;;;;;12.93;76.46;102118.28;7368052;19;19919;-62
2023/11/23 01:41:33;;;;;;;;;;;;;;;12.93;76.07;102134.03;7367054;19;19922;-62
2023/11/23 01:43:58;;;;;;;;;;;;;;;12.94;76.59;102110.41;7370240;19;20342;-62
2023/11/23 01:46:23;;;;;;;;;;;;;;;12.95;76.27;102109.50;7370555;19;20461;-62
2023/11/23 01:48:50;;;;;;;;;;;;;;;12.95;76.03;102108.66;7368164;19;20581;-62
2023/11/23 01:51:15;;;;;;;;;;;;;;;12.94;76.11;102099.91;7370153;19;19929;-61
2023/11/23 01:53:41;;;;;;;;;;;;;;;12.95;76.54;102087.66;7365499;19;20258;-62
2023/11/23 01:56:08;;;;;;;;;;;;;;;12.97;75.99;102099.88;7367778;19;19918;-61
2023/11/23 01:58:34;;;;;;;;;;;;;;;12.97;76.35;102094.63;7370685;19;20017;-62
2023/11/23 02:00:59;;;;;;;;;;;;;;;12.98;76.45;102096.38;7367714;19;20002;-63
2023/11/23 02:03:25;;;;;;;;;;;;;;;12.97;76.25;102093.75;7356853;19;19922;-62
2023/11/23 02:05:50;;;;;;;;;;;;;;;12.97;76.41;102088.50;7373162;19;19914;-61
2023/11/23 02:08:16;;;;;;;;;;;;;;;12.98;75.90;102093.75;7367283;19;19926;-62
2023/11/23 02:10:41;;;;;;;;;;;;;;;12.99;76.32;102092.00;7368004;19;19925;-62
2023/11/23 02:13:07;;;;;;;;;;;;;;;12.99;75.98;102078.91;7370175;19;19954;-60
2023/11/23 02:15:32;;;;;;;;;;;;;;;12.99;76.11;102107.75;7367166;19;19979;-62
2023/11/23 02:18:01;;;;;;;;;;;;;;;12.99;75.83;102079.75;7369100;19;19922;-62
2023/11/23 02:20:26;;;;;;;;;;;;;;;12.98;75.57;102070.16;7365296;19;19958;-62
2023/11/23 02:22:51;;;;;;;;;;;;;;;12.98;75.83;102082.41;7365396;19;20331;-62
2023/11/23 02:25:17;;;;;;;;;;;;;;;12.97;75.91;102073.66;7364978;19;20678;-62
2023/11/23 02:27:42;;;;;;;;;;;;;;;12.97;75.55;102072.78;7366861;19;19915;-62
2023/11/23 02:30:08;;;;;;;;;;;;;;;12.96;75.60;102077.16;7370064;19;19928;-62
2023/11/23 02:32:33;;;;;;;;;;;;;;;12.95;75.61;102069.31;7365355;19;19950;-61
2023/11/23 02:34:59;;;;;;;;;;;;;;;12.96;75.88;102057.94;7368096;19;20205;-62
2023/11/23 02:37:24;;;;;;;;;;;;;;;12.94;75.98;102067.59;7365010;19;20747;-62
2023/11/23 02:39:50;;;;;;;;;;;;;;;12.93;75.88;102055.38;7368381;19;19915;-62
2023/11/23 02:42:15;;;;;;;;;;;;;;;12.93;75.78;102060.63;7370077;19;19946;-62
2023/11/23 02:44:40;;;;;;;;;;;;;;;12.92;75.67;102074.59;7358340;19;19922;-62
2023/11/23 02:47:05;;;;;;;;;;;;;;;12.91;75.91;102083.34;7371025;19;19923;-61
2023/11/23 02:49:31;;;;;;;;;;;;;;;12.91;75.64;102078.09;7366472;19;19923;-62
2023/11/23 02:51:57;;;;;;;;;;;;;;;12.91;75.65;102072.84;7365032;19;20594;-61
2023/11/23 02:54:22;;;;;;;;;;;;;;;12.91;75.51;102083.34;7362687;19;19946;-61
2023/11/23 02:56:48;;;;;;;;;;;;;;;12.90;75.45;102076.38;7366910;19;20459;-62
2023/11/23 02:59:13;;;;;;;;;;;;;;;12.89;75.90;102065.00;7369250;19;20260;-62
2023/11/23 03:01:39;;;;;;;;;;;;;;;12.89;75.75;102074.63;7372366;19;20352;-62
2023/11/23 03:04:04;;;;;;;;;;;;;;;12.87;75.68;102073.75;7365522;19;19953;-62
2023/11/23 03:06:30;;;;;;;;;;;;;;;12.88;75.74;102067.66;7366558;19;19926;-62
2023/11/23 03:08:55;;;;;;;;;;;;;;;12.86;75.95;102082.50;7364188;19;19984;-61
2023/11/23 03:11:21;;;;;;;;;;;;;;;12.86;75.64;102077.28;7365540;19;19957;-61
2023/11/23 03:13:47;;;;;;;;;;;;;;;12.85;75.83;102078.16;7367251;19;19918;-61
2023/11/23 03:16:12;;;;;;;;;;;;;;;12.85;76.02;102079.03;7361255;19;19949;-62
2023/11/23 03:18:37;;;;;;;;;;;;;;;12.84;75.70;102081.69;7361625;19;19915;-61
2023/11/23 03:21:03;;;;;;;;;;;;;;;12.84;75.99;102079.06;7365442;19;20018;-62
2023/11/23 03:23:29;;;;;;;;;;;;;;;12.85;75.90;102078.16;7364426;19;20548;-61
2023/11/23 03:25:54;;;;;;;;;;;;;;;12.85;75.85;102078.16;7362554;19;19964;-62
2023/11/23 03:28:19;;;;;;;;;;;;;;;12.85;76.07;102088.66;7365262;19;19915;-61
2023/11/23 03:30:44;;;;;;;;;;;;;;;12.86;75.76;102113.97;7363266;19;19923;-61
2023/11/23 03:33:10;;;;;;;;;;;;;;;12.87;75.73;102102.59;7363797;19;20290;-62
2023/11/23 03:35:36;;;;;;;;;;;;;;;12.85;75.80;102109.63;7363504;19;19934;-62
2023/11/23 03:38:03;;;;;;;;;;;;;;;12.86;75.85;102095.63;7362804;19;19930;-61
2023/11/23 03:40:28;;;;;;;;;;;;;;;12.85;76.09;102092.13;7359937;19;19945;-62
2023/11/23 03:42:53;;;;;;;;;;;;;;;12.85;76.09;102094.75;7356976;19;20426;-62
2023/11/23 03:45:18;;;;;;;;;;;;;;;12.87;76.22;102103.47;7369144;19;19992;-62
2023/11/23 03:47:45;;;;;;;;;;;;;;;12.87;76.06;102081.63;7363487;19;19938;-62
2023/11/23 03:50:10;;;;;;;;;;;;;;;12.88;75.87;102076.38;7362543;19;19919;-62
2023/11/23 03:52:35;;;;;;;;;;;;;;;12.88;75.86;102083.38;7361400;19;19926;-62
2023/11/23 03:55:01;;;;;;;;;;;;;;;12.87;75.72;102082.50;7361015;19;19906;-62
2023/11/23 03:57:26;;;;;;;;;;;;;;;12.86;75.80;102091.25;7362520;19;19958;-62
2023/11/23 03:59:51;;;;;;;;;;;;;;;12.86;76.21;102080.75;7364779;19;19915;-62
2023/11/23 04:02:17;;;;;;;;;;;;;;;12.85;75.91;102078.16;7364836;19;20239;-62
2023/11/23 04:04:42;;;;;;;;;;;;;;;12.85;76.24;102072.91;7364776;19;20286;-61
2023/11/23 04:07:07;;;;;;;;;;;;;;;12.84;76.17;102072.06;7364826;19;19934;-62
2023/11/23 04:09:33;;;;;;;;;;;;;;;12.84;75.87;102055.47;7369160;19;19918;-62
2023/11/23 04:11:58;;;;;;;;;;;;;;;12.82;75.93;102067.69;7362973;19;20262;-62
2023/11/23 04:14:23;;;;;;;;;;;;;;;12.83;76.47;102058.97;7357356;19;20478;-62
2023/11/23 04:16:48;;;;;;;;;;;;;;;12.83;76.43;102051.09;7358379;19;19926;-62
2023/11/23 04:19:14;;;;;;;;;;;;;;;12.84;76.21;102039.72;7333600;19;19914;-62
2023/11/23 04:21:40;;;;;;;;;;;;;;;12.84;76.59;102044.97;7360122;19;19922;-62
2023/11/23 04:24:06;;;;;;;;;;;;;;;12.84;76.60;102039.72;7361043;19;19922;-61
2023/11/23 04:26:31;;;;;;;;;;;;;;;12.84;76.20;102050.22;7357665;19;19918;-62
2023/11/23 04:28:56;;;;;;;;;;;;;;;12.85;76.47;102038.84;7363556;19;20257;-62
2023/11/23 04:31:25;;;;;;;;;;;;;;;12.84;76.64;102037.97;7365192;19;20003;-61
2023/11/23 04:33:50;;;;;;;;;;;;;;;12.86;76.32;102032.72;7371303;19;20525;-63
2023/11/23 04:36:15;;;;;;;;;;;;;;;12.87;76.71;102042.31;7373416;19;19993;-62
2023/11/23 04:38:40;;;;;;;;;;;;;;;12.87;76.67;102043.16;7357873;19;19926;-61
2023/11/23 04:41:06;;;;;;;;;;;;;;;12.88;76.78;102038.81;7367879;19;19919;-62
2023/11/23 04:43:31;;;;;;;;;;;;;;;12.87;76.62;102035.31;7371022;19;19930;-59
2023/11/23 04:45:57;;;;;;;;;;;;;;;12.88;76.34;102036.19;7371811;19;19932;-62
2023/11/23 04:48:22;;;;;;;;;;;;;;;12.89;76.47;102035.31;7370966;19;19945;-60
2023/11/23 04:50:48;;;;;;;;;;;;;;;12.89;76.40;102043.19;7363304;19;19919;-62
2023/11/23 04:53:13;;;;;;;;;;;;;;;12.91;76.54;102041.38;7370610;19;19924;-62
2023/11/23 04:55:38;;;;;;;;;;;;;;;12.92;76.76;102043.13;7366229;19;19922;-62
2023/11/23 04:58:04;;;;;;;;;;;;;;;12.91;76.65;102028.28;7371418;19;19926;-61
2023/11/23 05:00:30;;;;;;;;;;;;;;;12.91;76.55;102026.53;7371110;19;19935;-62
2023/11/23 05:02:55;;;;;;;;;;;;;;;12.92;76.60;102022.16;7368362;19;19945;-61
2023/11/23 05:05:20;;;;;;;;;;;;;;;12.92;76.21;102049.22;7363753;19;20312;-62
2023/11/23 05:07:46;;;;;;;;;;;;;;;12.93;76.56;102042.25;7374289;19;19922;-62
2023/11/23 05:10:11;;;;;;;;;;;;;;;12.91;76.13;102052.75;7360226;19;19923;-61
2023/11/23 05:12:36;;;;;;;;;;;;;;;12.93;76.12;102058.00;7371391;19;19982;-62
2023/11/23 05:15:02;;;;;;;;;;;;;;;12.93;76.47;102034.41;7367095;19;20315;-62
2023/11/23 05:17:28;;;;;;;;;;;;;;;12.94;76.37;102041.38;7379250;19;19918;-62
2023/11/23 05:19:54;;;;;;;;;;;;;;;12.93;76.01;102016.03;7373099;19;19911;-61
2023/11/23 05:22:19;;;;;;;;;;;;;;;12.92;76.09;102012.53;7373273;19;19961;-61
2023/11/23 05:24:44;;;;;;;;;;;;;;;12.91;75.97;102015.16;7372173;19;19957;-62
2023/11/23 05:27:10;;;;;;;;;;;;;;;12.89;76.25;102027.44;7364704;19;19922;-62
2023/11/23 05:29:36;;;;;;;;;;;;;;;12.88;76.12;102028.34;7365033;19;19918;-61
2023/11/23 05:32:01;;;;;;;;;;;;;;;12.87;76.20;102026.56;7367133;19;19994;-62
2023/11/23 05:34:26;;;;;;;;;;;;;;;12.87;75.90;102044.91;7373642;19;20039;-61
2023/11/23 05:36:51;;;;;;;;;;;;;;;12.87;75.94;102023.94;7366996;19;19931;-62
2023/11/23 05:39:17;;;;;;;;;;;;;;;12.85;75.81;102036.22;7369287;19;19932;-62
2023/11/23 05:41:42;;;;;;;;;;;;;;;12.84;76.16;102045.84;7359442;19;19919;-61
2023/11/23 05:44:08;;;;;;;;;;;;;;;12.83;76.26;102038.00;7369270;19;20270;-61
2023/11/23 05:46:33;;;;;;;;;;;;;;;12.83;75.83;102038.00;7369723;19;19926;-62
2023/11/23 05:48:59;;;;;;;;;;;;;;;12.83;76.16;102023.13;7359622;19;19917;-61
2023/11/23 05:51:24;;;;;;;;;;;;;;;12.83;76.35;102043.25;7367578;19;20457;-62
2023/11/23 05:53:49;;;;;;;;;;;;;;;12.83;76.27;102023.13;7361290;19;20363;-61
2023/11/23 05:56:15;;;;;;;;;;;;;;;12.83;76.21;102024.91;7369078;19;20054;-61
2023/11/23 05:58:40;;;;;;;;;;;;;;;12.83;76.34;102032.75;7374201;19;19923;-62
2023/11/23 06:01:06;;;;;;;;;;;;;;;12.77;75.79;102024.94;7378539;19;19926;-62
2023/11/23 06:03:31;;;;;;;;;;;;;;;12.82;76.21;102037.09;7368154;19;19918;-62
2023/11/23 06:05:56;;;;;;;;;;;;;;;12.82;75.87;102004.78;7365024;19;19922;-62
2023/11/23 06:08:21;;;;;;;;;;;;;;;12.83;76.18;102033.63;7366582;19;20675;-61
2023/11/23 06:10:46;;;;;;;;;;;;;;;12.84;76.11;102029.25;7364102;19;19968;-62
2023/11/23 06:13:12;;;;;;;;;;;;;;;12.83;75.80;102030.13;7358392;19;19923;-62
2023/11/23 06:15:37;;;;;;;;;;;;;;;12.84;75.78;102037.97;7366252;19;19952;-62
2023/11/23 06:18:03;;;;;;;;;;;;;;;12.84;75.93;102034.50;7368634;19;19911;-62
2023/11/23 06:20:29;;;;;;;;;;;;;;;12.83;76.08;102033.63;7366406;19;19948;-62
2023/11/23 06:22:55;;;;;;;;;;;;;;;12.83;75.83;102024.91;7366209;19;20555;-62
2023/11/23 06:25:20;;;;;;;;;;;;;;;12.82;76.04;102004.78;7365072;19;19938;-61
2023/11/23 06:27:46;;;;;;;;;;;;;;;12.82;75.86;101997.78;7363311;19;19948;-60
2023/11/23 06:30:11;;;;;;;;;;;;;;;12.82;75.77;102012.66;7367229;19;19926;-61
2023/11/23 06:32:37;;;;;;;;;;;;;;;12.83;75.77;102006.53;7367106;19;19960;-62
2023/11/23 06:35:02;;;;;;;;;;;;;;;12.83;76.19;102022.28;7366975;19;20418;-61
2023/11/23 06:37:27;;;;;;;;;;;;;;;12.83;76.27;102022.28;7360570;19;19926;-62
2023/11/23 06:39:53;;;;;;;;;;;;;;;12.83;76.11;102023.13;7366711;19;19931;-61
2023/11/23 06:42:19;;;;;;;;;;;;;;;12.85;76.01;102010.00;7366024;19;19919;-62
2023/11/23 06:44:45;;;;;;;;;;;;;;;12.84;76.15;102003.03;7368484;19;19914;-62
2023/11/23 06:47:10;;;;;;;;;;;;;;;12.84;76.25;102008.28;7364137;19;19931;-61
2023/11/23 06:49:36;;;;;;;;;;;;;;;12.85;75.69;102005.63;7365693;19;19915;-60
2023/11/23 06:52:01;;;;;;;;;;;;;;;12.84;76.00;102003.91;7363139;19;19919;-62
2023/11/23 06:54:27;;;;;;;;;;;;;;;12.85;75.78;102015.25;7365741;19;19923;-62
2023/11/23 06:56:52;;;;;;;;;;;;;;;12.85;76.02;102010.00;7360074;19;19926;-61
2023/11/23 06:59:18;;;;;;;;;;;;;;;12.84;76.15;102024.00;7363558;19;19936;-62
2023/11/23 07:01:43;;;;;;;;;;;;;;;12.85;76.05;102010.00;7364490;19;19947;-62
2023/11/23 07:04:09;;;;;;;;;;;;;;;12.85;75.96;102000.38;7364012;19;20377;-62
2023/11/23 07:06:34;;;;;;;;;;;;;;;12.85;76.10;102010.00;7366309;19;19922;-62
2023/11/23 07:09:00;;;;;;;;;;;;;;;12.84;75.72;101992.53;7361717;19;19920;-62
2023/11/23 07:11:25;;;;;;;;;;;;;;;12.85;75.83;101978.53;7365232;19;19919;-62
2023/11/23 07:13:51;;;;;;;;;;;;;;;12.84;75.75;101993.41;7359646;19;19918;-62
2023/11/23 07:16:16;;;;;;;;;;;;;;;12.85;75.99;102000.38;7363403;19;19922;-61
2023/11/23 07:18:41;;;;;;;;;;;;;;;12.86;75.90;102001.25;7359269;19;19922;-61
2023/11/23 07:21:07;;;;;;;;;;;;;;;12.87;76.07;102013.47;7366049;19;20333;-62
2023/11/23 07:23:32;;;;;;;;;;;;;;;12.87;75.75;102001.22;7362758;19;20612;-62
2023/11/23 07:25:57;;;;;;;;;;;;;;;12.87;75.83;102016.09;7365460;19;19963;-62
2023/11/23 07:28:25;;;;;;;;;;;;;;;12.87;75.82;101993.34;7358625;19;19990;-62
2023/11/23 07:30:50;;;;;;;;;;;;;;;12.87;76.08;102018.72;7361135;19;19919;-61
2023/11/23 07:33:17;;;;;;;;;;;;;;;12.87;75.99;102009.09;7366155;19;19919;-61
2023/11/23 07:35:46;;;;;;;;;;;;;;;12.86;76.25;102002.13;7359454;19;19929;-62
2023/11/23 07:38:12;;;;;;;;;;;;;;;12.86;75.91;102006.50;7364181;19;20369;-61
2023/11/23 07:40:38;;;;;;;;;;;;;;;12.87;75.91;102013.47;7361776;19;19926;-62
2023/11/23 07:43:04;;;;;;;;;;;;;;;12.88;76.38;102036.19;7360852;19;19933;-62
2023/11/23 07:45:29;;;;;;;;;;;;;;;12.90;76.42;102014.31;7362566;19;20922;-62
2023/11/23 07:47:55;;;;;;;;;;;;;;;12.89;76.28;102027.44;7356115;19;19954;-60
2023/11/23 07:50:20;;;;;;;;;;;;;;;12.91;76.10;102036.16;7341170;19;19935;-62
2023/11/23 07:52:46;;;;;;;;;;;;;;;12.92;76.47;102037.88;7366831;19;19944;-62
2023/11/23 07:55:12;;;;;;;;;;;;;;;12.92;76.09;102041.38;7360015;19;20255;-61
2023/11/23 07:57:38;;;;;;;;;;;;;;;12.93;76.28;102050.13;7352671;19;20343;-62
2023/11/23 08:00:04;;;;;;;;;;;;;;;12.95;76.51;102053.59;7362928;19;19949;-61
2023/11/23 08:02:30;;;;;;;;;;;;;;;12.95;76.45;102056.22;7363205;19;20480;-61
2023/11/23 08:04:56;;;;;;;;;;;;;;;12.97;76.40;102041.31;7366159;19;19923;-62
2023/11/23 08:07:21;;;;;;;;;;;;;;;12.97;76.32;102047.41;7360884;19;19907;-62
2023/11/23 08:09:46;;;;;;;;;;;;;;;12.99;76.39;102050.06;7359867;19;19929;-61
2023/11/23 08:12:11;;;;;;;;;;;;;;;12.98;76.38;102032.59;7363919;19;19934;-62
2023/11/23 08:14:37;;;;;;;;;;;;;;;13.01;76.12;102022.03;7358692;19;20251;-62
2023/11/23 08:17:03;;;;;;;;;;;;;;;13.02;76.22;102018.53;7362013;19;19918;-62
2023/11/23 08:19:30;;;;;;;;;;;;;;;13.04;76.30;102016.78;7363329;19;19922;-62
2023/11/23 08:21:56;;;;;;;;;;;;;;;13.05;76.14;102018.50;7365158;19;19929;-62
2023/11/23 08:24:21;;;;;;;;;;;;;;;13.06;76.11;102019.38;7354499;19;19926;-62
2023/11/23 08:26:46;;;;;;;;;;;;;;;13.08;76.16;102023.72;7362017;19;19931;-62
2023/11/23 08:29:11;;;;;;;;;;;;;;;13.04;76.18;102019.41;7356767;19;19934;-62
2023/11/23 08:31:37;;;;;;;;;;;;;;;13.11;76.06;102034.16;7358571;19;19918;-62
2023/11/23 08:34:03;;;;;;;;;;;;;;;13.11;76.56;102023.66;7361435;19;19956;-62
2023/11/23 08:36:28;;;;;;;;;;;;;;;13.13;76.21;102032.41;7363463;19;19918;-62
2023/11/23 08:38:54;;;;;;;;;;;;;;;13.15;76.42;102038.50;7360601;19;19937;-62
2023/11/23 08:41:20;;;;;;;;;;;;;;;13.16;76.11;102037.59;7364589;19;20287;-62
2023/11/23 08:43:48;;;;;;;;;;;;;;;13.17;76.49;102028.84;7340888;19;19927;-62
2023/11/23 08:46:14;;;;;;;;;;;;;;;13.17;76.22;102026.22;7361968;19;19918;-62
2023/11/23 08:48:39;;;;;;;;;;;;;;;13.20;76.03;102035.81;7360548;19;19929;-61
2023/11/23 08:51:05;;;;;;;;;;;;;;;13.21;76.02;102035.81;7365540;19;20323;-62
2023/11/23 08:53:30;;;;;;;;;;;;;;;13.23;76.17;102036.69;7363421;19;19959;-62
2023/11/23 08:55:55;;;;;;;;;;;;;;;13.25;76.01;102020.91;7360161;19;20321;-62
2023/11/23 08:58:21;;;;;;;;;;;;;;;13.28;76.36;102030.50;7359723;19;20420;-61
2023/11/23 09:00:46;;;;;;;;;;;;;;;13.29;75.99;102021.75;7363672;19;20387;-62
2023/11/23 09:03:11;;;;;;;;;;;;;;;13.32;75.82;102021.69;7366005;19;19919;-62
2023/11/23 09:05:37;;;;;;;;;;;;;;;13.32;75.74;102037.44;7370776;19;19918;-62
2023/11/23 09:08:06;;;;;;;;;;;;;;;13.32;76.17;102026.94;7370210;19;19982;-61
2023/11/23 09:10:32;;;;;;;;;;;;;;;13.32;75.91;102027.81;7364812;19;20599;-62
2023/11/23 09:12:57;;;;;;;;;;;;;;;13.35;76.12;102040.03;7360929;19;19911;-61
2023/11/23 09:15:22;;;;;;;;;;;;;;;13.34;76.03;102033.94;7361944;19;20001;-62
2023/11/23 09:17:47;;;;;;;;;;;;;;;13.36;75.91;102019.03;7362963;19;20022;-62
2023/11/23 09:20:13;;;;;;;;;;;;;;;13.38;75.84;102033.00;7363027;19;19990;-62
2023/11/23 09:22:39;;;;;;;;;;;;;;;13.41;75.80;102029.47;7375822;19;20612;-61
2023/11/23 09:25:06;;;;;;;;;;;;;;;13.46;76.20;102018.00;7369835;19;19922;-62
2023/11/23 09:27:31;;;;;;;;;;;;;;;13.49;75.74;102025.00;7364262;19;20401;-62
2023/11/23 09:29:57;;;;;;;;;;;;;;;13.50;75.99;102031.97;7369527;19;19923;-62
2023/11/23 09:32:22;;;;;;;;;;;;;;;13.56;75.88;102031.00;7365530;19;20312;-62
2023/11/23 09:34:48;;;;;;;;;;;;;;;13.61;76.05;102035.31;7370592;19;19914;-62
2023/11/23 09:37:13;;;;;;;;;;;;;;;13.65;75.67;102031.75;7366820;19;19954;-62
2023/11/23 09:39:38;;;;;;;;;;;;;;;13.69;75.67;102022.09;7367179;19;19918;-62
2023/11/23 09:42:05;;;;;;;;;;;;;;;13.75;75.53;102022.84;7367825;19;20339;-62
2023/11/23 09:44:31;;;;;;;;;;;;;;;13.77;75.66;102015.81;7368327;19;19918;-61
2023/11/23 09:46:57;;;;;;;;;;;;;;;13.80;75.74;102029.81;7365264;19;19922;-62
2023/11/23 09:49:23;;;;;;;;;;;;;;;13.84;75.29;102034.09;7374238;19;19954;-61
2023/11/23 09:51:49;;;;;;;;;;;;;;;13.86;75.19;102009.56;7367920;19;19919;-62
2023/11/23 09:54:18;;;;;;;;;;;;;;;13.86;75.43;102011.31;7371671;19;19948;-62
2023/11/23 09:56:43;;;;;;;;;;;;;;;13.88;75.63;102002.50;7369498;19;20044;-62
2023/11/23 09:59:09;;;;;;;;;;;;;;;13.93;75.47;102008.56;7366577;19;19951;-62
2023/11/23 10:01:37;;;;;;;;;;;;;;;14.01;75.81;102013.72;7366505;19;19951;-61
2023/11/23 10:04:04;;;;;;;;;;;;;;;14.09;75.70;102022.34;7377171;19;19919;-62
2023/11/23 10:06:29;;;;;;;;;;;;;;;14.16;75.46;102008.19;7371078;19;19923;-62
2023/11/23 10:08:54;;;;;;;;;;;;;;;14.23;75.30;102017.72;7362547;19;19949;-62
2023/11/23 10:11:20;;;;;;;;;;;;;;;14.28;75.10;102013.25;7371533;19;19922;-62
2023/11/23 10:13:46;;;;;;;;;;;;;;;14.30;74.97;101994.84;7365011;19;20347;-62
2023/11/23 10:16:11;;;;;;;;;;;;;;;14.31;74.98;102011.47;7368756;19;19997;-62
2023/11/23 10:18:37;;;;;;;;;;;;;;;14.33;74.53;102012.31;7365972;19;19922;-61
2023/11/23 10:21:02;;;;;;;;;;;;;;;14.34;74.34;102012.25;7367082;19;19946;-62
2023/11/23 10:23:27;;;;;;;;;;;;;;;14.36;74.53;102035.91;7363098;19;19918;-62
2023/11/23 10:25:54;;;;;;;;;;;;;;;14.38;74.21;102036.75;7369027;19;19987;-62
2023/11/23 10:28:21;;;;;;;;;;;;;;;14.38;73.91;102039.38;7360748;19;19922;-62
2023/11/23 10:30:47;;;;;;;;;;;;;;;14.38;73.94;102042.00;7364345;19;19922;-61
2023/11/23 10:33:13;;;;;;;;;;;;;;;14.38;74.10;102018.34;7364663;19;20411;-62
2023/11/23 10:35:41;;;;;;;;;;;;;;;14.36;73.85;102020.16;7365956;19;19929;-61
2023/11/23 10:38:07;;;;;;;;;;;;;;;14.36;73.71;102018.38;7362265;19;19922;-61
2023/11/23 10:40:33;;;;;;;;;;;;;;;14.36;73.49;102033.28;7361772;19;20470;-62
2023/11/23 10:43:02;;;;;;;;;;;;;;;14.35;73.51;102021.91;7364085;19;19918;-61
2023/11/23 10:45:27;;;;;;;;;;;;;;;14.34;73.43;102011.41;7362867;19;19982;-62
2023/11/23 10:47:53;;;;;;;;;;;;;;;14.35;73.95;102018.41;7365519;19;20010;-61
2023/11/23 10:50:19;;;;;;;;;;;;;;;14.36;73.78;102041.16;7363304;19;19931;-61
2023/11/23 10:52:44;;;;;;;;;;;;;;;14.39;74.30;102026.19;7361798;19;19953;-62
2023/11/23 10:55:12;;;;;;;;;;;;;;;14.42;74.18;102015.63;7358279;19;19914;-62
2023/11/23 10:57:52;;;;;;;;;;;;;;;14.49;73.87;102034.81;7369742;19;19952;-62
2023/11/23 11:00:23;;;;;;;;;;;;;;;14.52;74.10;102021.63;7364284;19;20662;-61
2023/11/23 11:02:49;;;;;;;;;;;;;;;14.54;73.96;102027.72;7366292;19;20381;-62
2023/11/23 11:05:22;;;;;;;;;;;;;;;14.57;73.85;102025.03;7359925;19;19919;-62
2023/11/23 11:08:00;;;;;;;;;;;;;;;14.61;73.73;102020.59;7365828;19;20697;-62
2023/11/23 11:10:25;;;;;;;;;;;;;;;14.62;73.89;102017.94;7365400;19;19942;-62
2023/11/23 11:12:51;;;;;;;;;;;;;;;14.64;73.60;102000.38;7361043;19;19927;-62
2023/11/23 11:15:18;;;;;;;;;;;;;;;14.67;73.72;101989.81;7364529;19;20255;-61
2023/11/23 11:17:43;;;;;;;;;;;;;;;14.71;74.17;101985.38;7359170;19;19933;-62
2023/11/23 11:20:10;;;;;;;;;;;;;;;14.77;74.07;101975.59;7362190;19;20550;-62
2023/11/23 11:22:35;;;;;;;;;;;;;;;14.50;74.25;101924.41;7356555;19;19948;-60
2023/11/23 11:25:01;;;;;;;;;;;;;;;14.96;74.06;101964.69;7353402;19;19950;-62
2023/11/23 11:27:32;;;;;;;;;;;;;;;15.08;74.13;101969.69;7363867;19;19930;-62
2023/11/23 11:29:58;;;;;;;;;;;;;;;15.20;73.75;101974.69;7363502;19;19919;-62
2023/11/23 11:32:30;;;;;;;;;;;;;;;15.35;73.38;101977.88;7359093;19;19950;-62
2023/11/23 11:35:00;;;;;;;;;;;;;;;15.50;73.43;101964.38;7361632;19;19943;-62
2023/11/23 11:37:27;;;;;;;;;;;;;;;15.66;73.09;101968.44;7367445;19;19922;-62
2023/11/23 11:39:52;;;;;;;;;;;;;;;15.78;72.59;101962.88;7365329;19;20255;-62
2023/11/23 11:42:19;;;;;;;;;;;;;;;15.89;72.31;101959.09;7360118;19;19922;-62
2023/11/23 11:44:48;;;;;;;;;;;;;;;15.94;72.27;101947.53;7360575;19;19918;-62
2023/11/23 11:47:13;;;;;;;;;;;;;;;16.01;71.83;101945.63;7361886;19;20720;-62
2023/11/23 11:49:38;;;;;;;;;;;;;;;16.06;71.51;101943.72;7360854;19;19923;-62
2023/11/23 11:52:08;;;;;;;;;;;;;;;16.06;71.65;101938.47;7360409;19;20683;-62
2023/11/23 11:54:35;;;;;;;;;;;;;;;16.06;71.31;101933.19;7370891;19;19923;-62
2023/11/23 11:57:01;;;;;;;;;;;;;;;16.07;71.12;101948.97;7355612;19;19921;-62
2023/11/23 11:59:26;;;;;;;;;;;;;;;16.11;70.93;101943.63;7362387;19;19915;-61
2023/11/23 12:01:52;;;;;;;;;;;;;;;16.10;70.92;101942.75;7361930;19;19915;-61
2023/11/23 12:04:18;;;;;;;;;;;;;;;16.11;70.49;101939.19;7356210;19;19923;-61
2023/11/23 12:06:48;;;;;;;;;;;;;;;16.09;70.67;101935.75;7360843;19;19922;-62
2023/11/23 12:09:23;;;;;;;;;;;;;;;16.06;70.62;101931.41;7358102;19;20338;-62
2023/11/23 12:12:10;;;;;;;;;;;;;;;16.05;70.47;101939.38;7360042;19;19939;-62
2023/11/23 12:14:35;;;;;;;;;;;;;;;16.03;70.52;101936.78;7358155;19;20613;-62
2023/11/23 12:17:10;;;;;;;;;;;;;;;16.04;70.68;101932.38;7358557;19;19926;-62
2023/11/23 12:19:36;;;;;;;;;;;;;;;16.02;70.87;101928.94;7365600;19;19923;-62
2023/11/23 12:22:02;;;;;;;;;;;;;;;16.08;71.19;101939.31;7358953;19;19958;-59
2023/11/23 12:24:30;;;;;;;;;;;;;;;16.16;71.47;101931.19;7360566;19;19919;-62